Time;durP1;ratioP1;P1;durP2;ratioP2;P2;SDS_P1;SDS_P2;PMS_P1;PMS_P2;Temp;Humidity;BMP_temperature;BMP_pressure;BME280_temperature;BME280_humidity;BME280_pressure;Samples;Min_cycle;Max_cycle;Signal;HPM_P1;HPM_P2
2022/05/07 00:00:47;;;;;;;13.15;8.50;;;;;;;13.61;74.40;102252.72;5096778;28;20016;-40
2022/05/07 00:03:13;;;;;;;15.73;8.95;;;;;;;13.73;74.18;102249.56;5096676;28;20038;-40
2022/05/07 00:05:38;;;;;;;20.15;9.00;;;;;;;13.77;73.94;102255.22;5096580;28;20459;-39
2022/05/07 00:08:05;;;;;;;14.10;10.15;;;;;;;13.72;74.16;102255.75;5096288;28;20024;-40
2022/05/07 00:10:30;;;;;;;15.32;9.98;;;;;;;13.72;73.84;102255.75;5096499;28;20024;-40
2022/05/07 00:12:55;;;;;;;23.88;10.38;;;;;;;13.84;73.55;102250.13;5096509;28;20386;-40
2022/05/07 00:15:21;;;;;;;17.17;10.50;;;;;;;13.90;73.02;102249.47;5096220;28;20099;-40
2022/05/07 00:18:02;;;;;;;14.48;9.70;;;;;;;13.79;73.27;102240.28;5095950;28;20059;-40
2022/05/07 00:20:28;;;;;;;14.43;10.00;;;;;;;13.87;73.23;102244.63;5096014;28;20028;-39
2022/05/07 00:22:54;;;;;;;15.63;10.18;;;;;;;13.81;73.03;102248.72;5095314;28;20084;-40
2022/05/07 00:25:19;;;;;;;16.77;10.95;;;;;;;13.70;73.26;102254.31;5095837;28;20020;-39
2022/05/07 00:27:45;;;;;;;18.45;10.98;;;;;;;13.66;73.47;102242.63;5096464;28;20037;-40
2022/05/07 00:30:11;;;;;;;14.95;10.43;;;;;;;13.62;73.41;102241.34;5095881;28;20500;-39
2022/05/07 00:32:36;;;;;;;17.33;10.35;;;;;;;13.67;73.46;102239.06;5095838;28;20020;-39
2022/05/07 00:35:01;;;;;;;16.17;10.35;;;;;;;13.66;73.38;102242.63;5094472;28;20028;-40
2022/05/07 00:37:27;;;;;;;19.65;10.63;;;;;;;13.64;74.11;102234.22;5096583;28;20028;-40
2022/05/07 00:39:52;;;;;;;15.32;10.77;;;;;;;13.71;73.50;102227.34;5095987;28;20032;-40
2022/05/07 00:42:18;;;;;;;15.55;10.75;;;;;;;13.70;73.43;102229.13;5095907;28;20473;-40
2022/05/07 00:44:44;;;;;;;14.13;9.82;;;;;;;13.60;73.06;102209.53;5095671;28;20060;-40
2022/05/07 00:47:15;;;;;;;19.35;10.63;;;;;;;13.85;72.73;102228.38;5095844;28;20031;-39
2022/05/07 00:49:43;;;;;;;18.00;10.02;;;;;;;13.87;72.26;102227.22;5095449;28;20024;-40
2022/05/07 00:52:08;;;;;;;19.00;10.55;;;;;;;13.88;71.67;102225.44;5095513;28;20478;-38
2022/05/07 00:54:34;;;;;;;14.18;9.57;;;;;;;13.93;71.08;102218.75;5095382;28;20100;-40
2022/05/07 00:56:59;;;;;;;18.70;10.02;;;;;;;14.03;70.96;102223.69;5096109;28;20028;-40
2022/05/07 00:59:24;;;;;;;14.63;9.30;;;;;;;13.98;70.35;102213.84;5096043;28;20032;-40
2022/05/07 01:01:50;;;;;;;17.83;9.73;;;;;;;13.92;70.18;102208.50;5095243;28;20024;-40
2022/05/07 01:04:15;;;;;;;13.65;8.95;;;;;;;13.91;70.27;102222.50;5094023;28;20042;-39
2022/05/07 01:06:41;;;;;;;15.60;9.18;;;;;;;13.93;70.37;102210.94;5095752;28;20114;-40
2022/05/07 01:09:07;;;;;;;19.10;9.35;;;;;;;14.00;69.57;102218.84;5095350;28;20462;-40
2022/05/07 01:11:33;;;;;;;17.10;8.02;;;;;;;14.15;68.00;102206.69;5095130;28;20434;-39
2022/05/07 01:13:58;;;;;;;16.88;8.30;;;;;;;14.06;67.54;102201.75;5095465;28;20111;-39
2022/05/07 01:16:24;;;;;;;13.30;7.70;;;;;;;14.15;67.29;102205.88;5095156;28;20145;-40
2022/05/07 01:18:49;;;;;;;12.00;7.95;;;;;;;14.04;67.48;102195.91;5095066;28;20027;-41
2022/05/07 01:21:17;;;;;;;11.20;7.90;;;;;;;14.07;67.71;102200.75;5094892;28;20020;-41
2022/05/07 01:23:43;;;;;;;15.93;8.10;;;;;;;14.15;67.51;102198.09;5094636;28;20052;-39
2022/05/07 01:26:10;;;;;;;16.60;7.93;;;;;;;13.94;68.16;102201.34;5095119;28;20514;-40
2022/05/07 01:28:35;;;;;;;15.80;7.95;;;;;;;14.00;67.99;102201.44;5095871;28;20455;-41
2022/05/07 01:31:01;;;;;;;14.07;8.00;;;;;;;14.04;67.56;102194.13;5095052;28;20027;-41
2022/05/07 01:33:26;;;;;;;13.80;7.70;;;;;;;14.04;68.17;102196.75;5094896;28;20375;-40
2022/05/07 01:35:52;;;;;;;12.13;7.63;;;;;;;13.97;68.36;102194.00;5095022;28;20032;-38
2022/05/07 01:38:17;;;;;;;15.40;7.60;;;;;;;13.96;67.95;102196.78;5093373;28;20028;-39
2022/05/07 01:40:43;;;;;;;15.07;7.65;;;;;;;13.96;68.45;102202.00;5094552;28;20463;-40
2022/05/07 01:43:08;;;;;;;13.95;7.25;;;;;;;14.00;68.76;102204.06;5094521;28;20473;-40
2022/05/07 01:45:33;;;;;;;15.50;7.03;;;;;;;13.77;68.25;102193.66;5094674;28;20031;-40
2022/05/07 01:48:11;;;;;;;13.63;6.70;;;;;;;13.90;68.03;102197.50;5093154;28;20421;-40
2022/05/07 01:50:41;;;;;;;14.07;7.00;;;;;;;13.94;67.19;102190.97;5094592;28;20035;-39
2022/05/07 01:53:08;;;;;;;11.52;6.72;;;;;;;14.06;67.25;102196.53;5094805;28;20029;-40
2022/05/07 01:55:33;;;;;;;13.15;6.93;;;;;;;14.10;67.71;102190.84;5093357;28;20028;-40
2022/05/07 01:57:59;;;;;;;10.30;6.50;;;;;;;14.02;67.25;102182.28;5094462;28;20024;-39
2022/05/07 02:00:24;;;;;;;12.63;6.53;;;;;;;13.98;68.40;102190.44;5094242;28;20035;-39
2022/05/07 02:02:50;;;;;;;12.07;6.45;;;;;;;14.05;66.65;102189.75;5094158;28;20109;-40
2022/05/07 02:05:15;;;;;;;14.10;6.18;;;;;;;14.10;67.02;102193.44;5092799;28;20482;-39
2022/05/07 02:07:40;;;;;;;12.20;5.95;;;;;;;14.12;66.30;102191.44;5094546;28;20085;-40
2022/05/07 02:10:06;;;;;;;13.68;6.28;;;;;;;14.16;66.08;102194.53;5094235;28;20024;-40
2022/05/07 02:12:31;;;;;;;11.95;6.65;;;;;;;14.07;65.85;102185.16;5092714;28;20059;-51
2022/05/07 02:14:57;;;;;;;12.35;5.93;;;;;;;14.06;66.38;102191.34;5094326;28;20067;-41
2022/05/07 02:17:22;;;;;;;13.93;6.38;;;;;;;13.95;65.81;102177.81;5094163;28;20494;-39
2022/05/07 02:19:48;;;;;;;10.65;6.25;;;;;;;13.95;66.12;102185.59;5094076;28;20054;-39
2022/05/07 02:22:13;;;;;;;16.15;6.32;;;;;;;13.98;66.60;102192.22;5093889;28;20059;-38
2022/05/07 02:24:38;;;;;;;9.93;6.20;;;;;;;13.99;66.45;102189.44;5093800;28;20023;-40
2022/05/07 02:27:04;;;;;;;9.80;5.93;;;;;;;13.92;66.57;102190.31;5094025;28;20024;-40
2022/05/07 02:29:29;;;;;;;10.38;5.82;;;;;;;13.90;68.31;102187.09;5093548;28;20031;-39
2022/05/07 02:32:04;;;;;;;10.38;5.63;;;;;;;13.90;67.45;102195.69;5092464;28;20019;-39
2022/05/07 02:34:34;;;;;;;10.00;5.90;;;;;;;13.79;67.00;102184.91;5093807;28;20020;-39
2022/05/07 02:36:59;;;;;;;10.25;5.78;;;;;;;13.86;66.75;102183.22;5093837;28;20532;-41
2022/05/07 02:39:25;;;;;;;9.68;5.40;;;;;;;13.87;67.02;102177.06;5092340;28;20074;-39
2022/05/07 02:44:35;;;;;;;12.45;6.47;;;;;;;13.95;66.09;102183.00;5094359;28;20433;-40
2022/05/07 02:47:00;;;;;;;14.32;6.15;;;;;;;13.90;66.76;102185.31;5092947;28;20048;-39
2022/05/07 02:49:26;;;;;;;11.68;5.68;;;;;;;13.74;67.28;102162.03;5093505;28;20383;-40
2022/05/07 02:51:51;;;;;;;18.35;6.25;;;;;;;13.91;67.04;102184.31;5093702;28;20114;-40
2022/05/07 02:54:17;;;;;;;10.13;5.97;;;;;;;13.88;67.04;102176.88;5093589;28;20127;-40
2022/05/07 02:56:42;;;;;;;12.65;6.32;;;;;;;13.80;67.74;102181.31;5093665;28;20024;-40
2022/05/07 02:59:07;;;;;;;10.90;6.28;;;;;;;13.79;67.65;102187.50;5093376;28;20030;-39
2022/05/07 03:01:33;;;;;;;10.73;6.07;;;;;;;13.76;68.51;102186.06;5093935;28;20032;-39
2022/05/07 03:03:58;;;;;;;14.00;6.53;;;;;;;13.73;68.58;102189.00;5091983;28;20019;-40
2022/05/07 03:06:23;;;;;;;16.80;6.13;;;;;;;13.82;68.30;102182.78;5093546;28;20016;-39
2022/05/07 03:08:49;;;;;;;13.25;6.03;;;;;;;13.74;68.33;102194.00;5093188;28;20023;-39
2022/05/07 03:11:14;;;;;;;17.08;6.35;;;;;;;13.86;67.91;102183.22;5093858;28;20466;-40
2022/05/07 03:13:39;;;;;;;16.27;6.43;;;;;;;13.87;68.15;102192.66;5091864;28;20035;-39
2022/05/07 03:16:06;;;;;;;15.57;6.00;;;;;;;13.74;68.55;102188.81;5093268;28;20426;-40
2022/05/07 03:18:31;;;;;;;12.98;6.00;;;;;;;13.67;68.75;102185.31;5093187;28;20020;-40
2022/05/07 03:20:57;;;;;;;13.02;6.18;;;;;;;13.64;69.17;102187.47;5091909;28;20028;-40
2022/05/07 03:23:22;;;;;;;12.98;6.25;;;;;;;13.65;69.30;102186.47;5093123;28;20501;-40
2022/05/07 03:25:47;;;;;;;12.93;6.22;;;;;;;13.67;70.00;102187.91;5091865;28;20028;-39
2022/05/07 03:28:13;;;;;;;12.13;6.35;;;;;;;13.74;68.47;102188.00;5093748;28;20466;-40
2022/05/07 03:30:38;;;;;;;11.75;6.07;;;;;;;13.64;68.51;102187.47;5093438;28;20039;-40
2022/05/07 03:33:03;;;;;;;15.57;6.28;;;;;;;13.53;69.27;102191.25;5093033;28;20035;-39
2022/05/07 03:35:29;;;;;;;13.18;6.28;;;;;;;13.53;69.96;102192.06;5093325;28;20038;-40
2022/05/07 03:37:55;;;;;;;20.58;6.28;;;;;;;13.61;70.54;102190.38;5093340;28;20074;-40
2022/05/07 03:40:21;;;;;;;12.43;6.22;;;;;;;13.59;70.01;102193.16;5092988;28;20024;-48
2022/05/07 03:42:46;;;;;;;14.43;6.40;;;;;;;13.58;70.76;102190.72;5093017;28;20059;-39
2022/05/07 03:45:12;;;;;;;12.05;6.95;;;;;;;13.70;70.63;102191.97;5093229;28;20069;-39
2022/05/07 03:47:37;;;;;;;11.63;6.85;;;;;;;13.59;70.56;102192.34;5093169;28;20055;-39
2022/05/07 03:50:02;;;;;;;12.70;7.22;;;;;;;13.64;70.68;102196.06;5092892;28;20459;-40
2022/05/07 03:55:13;;;;;;;16.15;7.32;;;;;;;13.70;71.32;102197.94;5092869;28;20498;-39
2022/05/07 03:57:38;;;;;;;16.45;7.65;;;;;;;13.63;72.03;102196.22;5093020;28;20420;-41
2022/05/07 04:00:04;;;;;;;19.70;8.20;;;;;;;13.56;72.58;102198.69;5096213;28;20020;-39
2022/05/07 04:02:32;;;;;;;20.63;8.32;;;;;;;13.58;72.74;102206.31;5097037;28;20443;-39
2022/05/07 04:04:58;;;;;;;23.52;8.32;;;;;;;13.53;73.34;102212.03;5096680;28;20027;-40
2022/05/07 04:07:23;;;;;;;19.70;8.60;;;;;;;13.62;73.72;102208.38;5096650;28;20032;-40
2022/05/07 04:09:54;;;;;;;18.15;8.30;;;;;;;13.52;74.10;102205.19;5096287;28;20028;-39
2022/05/07 04:12:19;;;;;;;19.92;8.48;;;;;;;13.46;74.52;102217.06;5096263;28;20020;-39
2022/05/07 04:14:44;;;;;;;23.33;8.95;;;;;;;13.50;74.89;102209.78;5096138;28;20121;-40
2022/05/07 04:17:10;;;;;;;21.77;9.25;;;;;;;13.43;75.17;102207.03;5096141;28;20023;-40
2022/05/07 04:19:36;;;;;;;21.10;8.65;;;;;;;13.56;75.41;102213.47;5096322;28;20039;-40
2022/05/07 04:22:01;;;;;;;24.45;8.75;;;;;;;13.62;75.51;102210.19;5096126;28;20048;-40
2022/05/07 04:24:27;;;;;;;21.88;9.27;;;;;;;13.39;75.44;102199.78;5096330;28;20420;-40
2022/05/07 04:26:52;;;;;;;28.42;10.07;;;;;;;13.50;75.74;102218.38;5096175;28;20012;-40
2022/05/07 04:29:17;;;;;;;23.30;9.15;;;;;;;13.49;76.07;102206.38;5094591;28;20016;-40
2022/05/07 04:31:44;;;;;;;23.05;9.15;;;;;;;13.48;76.02;102220.31;5096369;28;20421;-40
2022/05/07 04:34:10;;;;;;;26.77;9.65;;;;;;;13.59;76.55;102213.13;5096261;28;20028;-40
2022/05/07 04:36:35;;;;;;;23.17;9.73;;;;;;;13.55;76.29;102220.44;5094512;28;20036;-40
2022/05/07 04:39:00;;;;;;;19.60;9.50;;;;;;;13.56;76.13;102216.88;5094427;28;20028;-40
2022/05/07 04:41:25;;;;;;;22.42;10.02;;;;;;;13.47;76.56;102217.91;5096069;28;20043;-39
2022/05/07 04:43:51;;;;;;;28.10;10.80;;;;;;;13.48;76.58;102217.72;5095719;28;20020;-39
2022/05/07 04:46:17;;;;;;;27.15;10.40;;;;;;;13.48;76.81;102217.72;5095584;28;20082;-40
2022/05/07 04:48:43;;;;;;;19.58;9.95;;;;;;;13.61;77.04;102218.94;5095802;28;20020;-40
2022/05/07 04:51:08;;;;;;;18.88;9.65;;;;;;;13.65;76.81;102220.22;5095467;28;20458;-39
2022/05/07 04:53:33;;;;;;;24.48;10.63;;;;;;;13.65;77.02;102220.22;5095811;28;20028;-40
2022/05/07 04:55:58;;;;;;;26.50;10.18;;;;;;;13.72;76.71;102214.19;5095818;28;20020;-40
2022/05/07 04:58:24;;;;;;;28.33;10.55;;;;;;;13.64;76.64;102216.84;5095579;28;20049;-40
2022/05/07 05:00:49;;;;;;;28.10;11.13;;;;;;;13.65;77.30;102220.22;5095263;28;20020;-40
2022/05/07 05:03:15;;;;;;;28.67;10.55;;;;;;;13.73;77.14;102218.38;5095774;28;20024;-40
2022/05/07 05:05:41;;;;;;;29.33;10.20;;;;;;;13.76;76.90;102228.44;5095192;28;20024;-40
2022/05/07 05:08:06;;;;;;;24.60;10.35;;;;;;;13.73;76.90;102227.97;5095519;28;20459;-48
2022/05/07 05:10:32;;;;;;;29.13;10.85;;;;;;;13.72;76.98;102231.53;5094891;28;20483;-40
2022/05/07 05:12:57;;;;;;;30.60;11.35;;;;;;;13.72;77.32;102234.97;5095056;28;20024;-40
2022/05/07 05:15:22;;;;;;;29.15;10.73;;;;;;;13.76;77.80;102238.81;5095011;28;20100;-40
2022/05/07 05:17:48;;;;;;;29.10;11.80;;;;;;;13.72;77.67;102236.72;5095040;28;20046;-40
2022/05/07 05:20:14;;;;;;;23.98;11.05;;;;;;;13.93;77.51;102247.31;5095217;28;20102;-41
2022/05/07 05:22:45;;;;;;;26.67;10.45;;;;;;;13.92;76.87;102245.69;5094823;28;20410;-40
2022/05/07 05:25:10;;;;;;;32.35;12.13;;;;;;;13.91;77.48;102245.88;5076764;28;20509;-39
2022/05/07 05:27:35;;;;;;;29.15;11.40;;;;;;;14.00;76.93;102253.44;5095061;28;20055;-39
2022/05/07 05:30:01;;;;;;;29.80;11.55;;;;;;;14.02;77.06;102250.69;5095347;28;20028;-39
2022/05/07 05:32:26;;;;;;;30.55;11.95;;;;;;;13.93;77.63;102259.53;5095011;28;20073;-40
2022/05/07 05:34:52;;;;;;;27.98;12.20;;;;;;;13.99;77.81;102258.81;5094611;28;20027;-40
2022/05/07 05:37:18;;;;;;;30.55;12.02;;;;;;;14.15;77.13;102258.69;5095617;28;20028;-40
2022/05/07 05:39:44;;;;;;;28.95;11.73;;;;;;;14.10;77.24;102263.63;5094561;28;20031;-40
2022/05/07 05:42:09;;;;;;;26.73;12.00;;;;;;;14.01;78.06;102256.84;5094829;28;20032;-41
2022/05/07 05:44:37;;;;;;;32.33;12.75;;;;;;;14.08;78.14;102265.56;5095029;28;20023;-40
2022/05/07 05:47:03;;;;;;;27.08;12.77;;;;;;;14.09;77.99;102259.38;5095294;28;20462;-40
2022/05/07 05:49:28;;;;;;;32.47;12.95;;;;;;;14.30;77.23;102265.72;5094614;28;20127;-39
2022/05/07 05:51:53;;;;;;;30.75;12.23;;;;;;;14.48;76.85;102268.03;5094613;28;20020;-43
2022/05/07 05:54:19;;;;;;;35.10;13.63;;;;;;;14.55;76.38;102261.16;5094469;28;20020;-40
2022/05/07 05:56:44;;;;;;;27.08;12.45;;;;;;;14.89;75.01;102269.25;5094326;28;20383;-40
2022/05/07 05:59:09;;;;;;;27.55;12.48;;;;;;;15.01;74.43;102269.63;5094672;28;20504;-41
2022/05/07 06:01:34;;;;;;;28.95;13.07;;;;;;;15.47;72.74;102265.97;5094202;28;20024;-40
2022/05/07 06:04:00;;;;;;;33.67;13.93;;;;;;;15.93;70.87;102273.50;5093643;28;20028;-41
2022/05/07 06:06:25;;;;;;;30.15;13.32;;;;;;;16.17;69.36;102275.75;5094073;28;20157;-39
2022/05/07 06:08:50;;;;;;;28.65;13.45;;;;;;;16.25;69.22;102272.19;5093951;28;20406;-39
2022/05/07 06:11:15;;;;;;;27.40;13.75;;;;;;;16.32;68.90;102274.88;5092607;28;20044;-39
2022/05/07 06:13:43;;;;;;;35.03;14.38;;;;;;;15.68;71.08;102281.69;5094241;28;20088;-40
2022/05/07 06:16:08;;;;;;;33.50;13.65;;;;;;;15.21;73.08;102280.28;5093387;28;20020;-40
2022/05/07 06:18:33;;;;;;;30.30;13.63;;;;;;;15.03;74.42;102288.47;5094166;28;20455;-41
2022/05/07 06:21:01;;;;;;;32.20;13.98;;;;;;;14.92;75.39;102275.09;5093184;28;20031;-39
2022/05/07 06:23:27;;;;;;;32.13;14.30;;;;;;;15.03;74.63;102280.66;5093585;28;20047;-40
2022/05/07 06:28:36;;;;;;;37.58;14.18;;;;;;;15.21;74.53;102277.69;5094060;28;20035;-39
2022/05/07 06:31:02;;;;;;;30.85;14.23;;;;;;;15.44;73.57;102289.78;5094039;28;20016;-41
2022/05/07 06:33:28;;;;;;;36.03;14.85;;;;;;;15.37;74.10;102283.72;5093835;28;20413;-40
2022/05/07 06:35:54;;;;;;;32.67;14.85;;;;;;;15.64;73.08;102290.03;5093631;28;20024;-39
2022/05/07 06:38:19;;;;;;;29.88;15.52;;;;;;;15.85;72.39;102281.44;5092345;28;20035;-40
2022/05/07 06:40:44;;;;;;;30.70;14.65;;;;;;;16.02;71.66;102293.25;5093552;28;20456;-41
2022/05/07 06:43:10;;;;;;;32.45;15.50;;;;;;;16.73;69.68;102284.59;5093789;28;20032;-41
2022/05/07 06:45:35;;;;;;;35.22;14.60;;;;;;;16.89;67.70;102285.13;5093758;28;20028;-40
2022/05/07 06:48:01;;;;;;;31.75;15.30;;;;;;;17.00;68.18;102289.00;5094239;28;20024;-41
2022/05/07 06:50:26;;;;;;;34.42;16.50;;;;;;;16.94;67.66;102278.53;5093665;28;20031;-41
2022/05/07 06:52:52;;;;;;;33.35;15.00;;;;;;;19.72;59.70;102269.84;5093463;28;20028;-41
2022/05/07 06:55:19;;;;;;;35.30;15.85;;;;;;;20.81;55.41;102280.84;5093863;28;20021;-42
2022/05/07 06:57:46;;;;;;;33.60;14.73;;;;;;;20.03;57.26;102294.47;5092176;28;20031;-41
2022/05/07 07:00:13;;;;;;;30.55;14.90;;;;;;;21.62;52.34;102284.91;5093740;28;20348;-41
2022/05/07 07:02:39;;;;;;;32.92;14.32;;;;;;;22.27;50.96;102296.53;5093617;28;20447;-41
2022/05/07 07:05:05;;;;;;;27.77;14.07;;;;;;;23.10;49.16;102291.97;5093325;28;20020;-40
2022/05/07 07:07:31;;;;;;;31.00;14.82;;;;;;;24.16;45.75;102294.88;5093356;28;20024;-41
2022/05/07 07:09:57;;;;;;;25.05;12.77;;;;;;;22.72;49.18;102296.72;5093402;28;20056;-41
2022/05/07 07:12:22;;;;;;;25.13;13.43;;;;;;;21.10;52.92;102291.66;5093171;28;20059;-41
2022/05/07 07:14:49;;;;;;;25.70;13.38;;;;;;;19.96;56.84;102297.13;5093492;28;20024;-41
2022/05/07 07:17:16;;;;;;;27.88;13.73;;;;;;;19.02;59.98;102293.34;5093610;28;20043;-41
2022/05/07 07:19:42;;;;;;;26.40;13.40;;;;;;;18.79;60.91;102301.66;5093478;28;20020;-41
2022/05/07 07:22:07;;;;;;;28.80;13.35;;;;;;;18.77;61.21;102297.63;5093074;28;20052;-41
2022/05/07 07:24:33;;;;;;;30.90;14.50;;;;;;;18.86;60.84;102294.56;5093240;28;20077;-41
2022/05/07 07:26:58;;;;;;;28.98;14.32;;;;;;;18.93;61.30;102287.53;5093445;28;20058;-41
2022/05/07 07:29:23;;;;;;;28.38;14.15;;;;;;;19.29;60.19;102301.91;5093667;28;20024;-41
2022/05/07 07:31:49;;;;;;;30.58;14.90;;;;;;;19.77;58.94;102298.88;5093692;28;20077;-40
2022/05/07 07:34:15;;;;;;;29.02;13.77;;;;;;;20.05;58.61;102303.72;5096999;28;20028;-41
2022/05/07 07:36:44;;;;;;;26.92;13.50;;;;;;;20.42;57.14;102305.66;5096834;28;20024;-42
2022/05/07 07:39:09;;;;;;;29.10;13.95;;;;;;;20.89;56.15;102298.97;5097140;28;20020;-40
2022/05/07 07:41:34;;;;;;;31.10;13.70;;;;;;;21.39;53.90;102304.03;5096866;28;20024;-41
2022/05/07 07:44:00;;;;;;;25.63;13.63;;;;;;;20.79;55.85;102297.84;5096824;28;20087;-41
2022/05/07 07:49:09;;;;;;;23.20;11.82;;;;;;;21.39;54.66;102314.56;5097175;28;20039;-41
2022/05/07 07:51:35;;;;;;;21.45;12.02;;;;;;;20.83;54.86;102312.16;5096580;28;20028;-41
2022/05/07 07:54:00;;;;;;;25.63;13.80;;;;;;;21.24;55.06;102313.34;5095225;28;20130;-40
2022/05/07 07:56:25;;;;;;;26.27;13.52;;;;;;;21.41;53.81;102309.09;5096801;28;20394;-41
2022/05/07 07:58:51;;;;;;;22.63;13.05;;;;;;;21.84;53.47;102310.72;5096813;28;20032;-41
2022/05/07 08:01:17;;;;;;;26.58;13.60;;;;;;;21.75;53.06;102306.78;5078307;28;20031;-41
2022/05/07 08:03:42;;;;;;;24.17;13.82;;;;;;;21.69;52.82;102310.31;5096369;28;20027;-41
2022/05/07 08:06:07;;;;;;;25.55;13.40;;;;;;;22.32;51.36;102314.25;5096299;28;20031;-40
2022/05/07 08:14:00;;;;;;;26.67;13.70;;;;;;;22.04;52.10;102313.88;5096338;28;20473;-40
2022/05/07 08:16:26;;;;;;;22.98;12.93;;;;;;;22.68;50.92;102315.88;5096186;28;20035;-44
2022/05/07 08:18:51;;;;;;;20.75;12.95;;;;;;;22.43;51.62;102311.63;5096027;28;20059;-40
2022/05/07 08:21:17;;;;;;;25.02;13.75;;;;;;;22.59;51.05;102314.63;5096343;28;20020;-40
2022/05/07 08:23:42;;;;;;;25.55;13.50;;;;;;;22.66;51.55;102317.91;5095951;28;20109;-40
2022/05/07 08:26:08;;;;;;;25.38;13.70;;;;;;;22.72;50.46;102317.00;5096260;28;20023;-39
2022/05/07 08:28:35;;;;;;;26.40;13.00;;;;;;;22.89;49.82;102315.25;5095915;28;20031;-40
2022/05/07 08:31:01;;;;;;;20.90;12.05;;;;;;;23.10;49.44;102316.50;5096168;28;20065;-41
2022/05/07 08:33:27;;;;;;;23.83;13.25;;;;;;;23.17;49.67;102317.16;5096023;28;20467;-40
2022/05/07 08:35:52;;;;;;;23.02;12.57;;;;;;;22.96;49.37;102317.81;5095753;28;20020;-40
2022/05/07 08:38:18;;;;;;;22.15;11.90;;;;;;;23.17;48.00;102313.72;5096764;28;20028;-41
2022/05/07 08:40:43;;;;;;;18.70;9.68;;;;;;;22.97;47.69;102325.47;5096042;28;20359;-41
2022/05/07 08:43:09;;;;;;;16.80;10.52;;;;;;;22.73;49.61;102314.13;5095844;28;20024;-40
2022/05/07 08:45:35;;;;;;;21.05;9.70;;;;;;;23.41;48.38;102315.22;5095033;28;20023;-41
2022/05/07 08:48:01;;;;;;;19.33;11.02;;;;;;;23.03;47.08;102315.03;5095002;28;20043;-41
2022/05/07 08:50:26;;;;;;;16.52;8.95;;;;;;;23.54;45.80;102321.28;5095972;28;20020;-41
2022/05/07 08:52:53;;;;;;;19.88;9.77;;;;;;;23.63;46.73;102319.84;5095502;28;20030;-39
2022/05/07 08:55:19;;;;;;;16.70;9.82;;;;;;;24.37;45.93;102326.84;5095959;28;20438;-40
2022/05/07 08:57:47;;;;;;;18.98;10.48;;;;;;;24.16;45.27;102321.28;5095761;28;20024;-40
2022/05/07 09:00:14;;;;;;;21.45;10.75;;;;;;;24.13;45.55;102324.41;5095966;28;20024;-40
2022/05/07 09:02:48;;;;;;;15.73;9.50;;;;;;;23.96;45.85;102324.38;5093952;28;20020;-39
2022/05/07 09:05:16;;;;;;;18.38;9.57;;;;;;;23.78;45.32;102295.59;5095124;28;20053;-39
2022/05/07 09:07:59;;;;;;;14.82;9.15;;;;;;;24.17;45.03;102322.06;5095406;28;20534;-39
2022/05/07 09:10:29;;;;;;;19.55;11.30;;;;;;;24.62;44.56;102327.25;5095018;28;20028;-39
2022/05/07 09:12:59;;;;;;;17.55;9.50;;;;;;;25.18;43.92;102325.34;5093897;28;20390;-41
2022/05/07 09:15:24;;;;;;;16.98;9.60;;;;;;;25.06;43.04;102327.28;5094688;28;20127;-39
2022/05/07 09:17:50;;;;;;;20.65;10.68;;;;;;;25.14;43.75;102326.06;5094990;28;20110;-40
2022/05/07 09:20:18;;;;;;;22.77;9.43;;;;;;;24.87;44.29;102331.28;5093509;28;20028;-39
2022/05/07 09:22:55;;;;;;;20.33;10.27;;;;;;;24.82;43.58;102321.44;5094619;28;20551;-39
2022/05/07 09:25:25;;;;;;;23.00;11.48;;;;;;;24.18;45.25;102329.75;5094977;28;20020;-40
2022/05/07 09:27:52;;;;;;;23.33;11.25;;;;;;;24.47;45.42;102329.69;5076395;28;20032;-40
2022/05/07 09:30:35;;;;;;;16.80;9.18;;;;;;;24.99;42.60;102324.03;5095323;28;20081;-39
2022/05/07 09:33:00;;;;;;;16.27;8.63;;;;;;;25.52;41.99;102319.88;5094498;28;20060;-40
2022/05/07 09:38:12;;;;;;;19.13;9.80;;;;;;;25.65;41.27;102335.31;5095245;28;20046;-40
2022/05/07 09:40:40;;;;;;;19.95;9.50;;;;;;;25.40;41.79;102327.13;5094559;28;20340;-40
2022/05/07 09:43:08;;;;;;;21.83;9.80;;;;;;;25.93;42.11;102338.78;5094247;28;20028;-40
2022/05/07 09:45:35;;;;;;;22.80;8.85;;;;;;;24.90;41.84;102336.06;5093848;28;20032;-40
2022/05/07 09:48:01;;;;;;;19.45;10.90;;;;;;;26.10;41.24;102331.50;5094720;28;20099;-39
2022/05/07 09:50:48;;;;;;;20.08;9.93;;;;;;;25.93;40.09;102338.78;5094387;28;20044;-41
2022/05/07 09:58:44;;;;;;;19.02;9.27;;;;;;;25.35;41.50;102343.78;5094753;28;20039;-41
2022/05/07 10:01:21;;;;;;;22.20;11.65;;;;;;;25.81;41.32;102338.13;5094627;28;20443;-40
2022/05/07 10:04:19;;;;;;;18.05;10.57;;;;;;;25.70;40.50;102336.44;5094572;28;20494;-40
2022/05/07 10:07:05;;;;;;;20.23;11.05;;;;;;;25.96;40.34;102345.44;5094186;28;20027;-40
2022/05/07 10:09:49;;;;;;;20.60;11.75;;;;;;;24.99;41.86;102342.53;5094032;28;20035;-41
2022/05/07 10:12:20;;;;;;;20.85;13.63;;;;;;;24.69;42.73;102345.59;5094079;28;20028;-41
2022/05/07 10:14:46;;;;;;;20.67;11.35;;;;;;;25.15;41.75;102352.28;5092781;28;20441;-39
2022/05/07 10:17:13;;;;;;;24.95;12.63;;;;;;;25.91;42.29;102345.38;5092435;28;20016;-40
2022/05/07 10:19:40;;;;;;;21.13;13.15;;;;;;;25.81;40.70;102349.53;5093693;28;20187;-40
2022/05/07 10:22:25;;;;;;;22.85;12.60;;;;;;;24.70;42.28;102352.47;5093978;28;20054;-41
2022/05/07 10:25:04;;;;;;;23.02;12.93;;;;;;;24.96;42.21;102353.59;5094030;28;20462;-40
2022/05/07 10:27:31;;;;;;;24.08;12.07;;;;;;;24.61;43.77;102346.81;5093683;28;20040;-39
2022/05/07 10:30:21;;;;;;;21.38;12.73;;;;;;;25.35;43.70;102350.91;5093977;28;20409;-40
2022/05/07 10:32:46;;;;;;;21.30;11.75;;;;;;;25.06;41.27;102352.91;5093549;28;20024;-41
2022/05/07 10:35:14;;;;;;;22.85;12.65;;;;;;;25.09;42.51;102347.94;5093760;28;20028;-40
2022/05/07 10:37:40;;;;;;;21.63;11.20;;;;;;;25.71;40.42;102345.97;5093882;28;20031;-39
2022/05/07 10:40:10;;;;;;;19.13;9.77;;;;;;;25.35;41.00;102348.28;5093564;28;20055;-41
2022/05/07 10:42:39;;;;;;;20.77;10.80;;;;;;;25.23;40.93;102347.59;5093806;28;20028;-40
2022/05/07 10:45:06;;;;;;;20.50;11.70;;;;;;;25.01;42.04;102344.94;5093457;28;20016;-40
2022/05/07 10:47:32;;;;;;;20.67;10.98;;;;;;;25.11;42.41;102348.47;5093701;28;20416;-40
2022/05/07 10:50:12;;;;;;;26.05;12.98;;;;;;;25.37;42.16;102344.31;5093393;28;20028;-39
2022/05/07 10:52:37;;;;;;;24.98;13.32;;;;;;;25.64;42.04;102341.69;5093790;28;20020;-40
2022/05/07 10:55:16;;;;;;;26.42;13.65;;;;;;;24.58;42.71;102344.66;5093604;28;20065;-40
2022/05/07 10:57:47;;;;;;;22.98;13.68;;;;;;;25.32;41.64;102357.50;5093264;28;20032;-40
2022/05/07 11:00:16;;;;;;;20.33;10.77;;;;;;;25.60;41.67;102340.56;5093607;28;20019;-41
2022/05/07 11:02:42;;;;;;;19.75;11.60;;;;;;;24.81;43.18;102353.41;5093788;28;20032;-41
2022/05/07 11:05:08;;;;;;;21.73;13.32;;;;;;;25.16;43.00;102340.66;5093564;28;20012;-40
2022/05/07 11:07:33;;;;;;;20.38;11.77;;;;;;;25.63;41.10;102334.78;5094066;28;20024;-40
2022/05/07 11:09:59;;;;;;;19.08;11.90;;;;;;;25.96;41.45;102345.44;5097388;28;20119;-41
2022/05/07 11:12:26;;;;;;;20.90;11.77;;;;;;;25.95;40.90;102343.81;5097324;28;20522;-40
2022/05/07 11:14:52;;;;;;;20.30;12.23;;;;;;;25.69;41.25;102340.13;5096198;28;20106;-39
2022/05/07 11:17:32;;;;;;;21.10;12.90;;;;;;;26.06;40.58;102343.63;5097108;28;20020;-39
2022/05/07 11:19:57;;;;;;;18.08;11.32;;;;;;;25.58;41.02;102349.84;5094777;28;20162;-40
2022/05/07 11:22:30;;;;;;;18.40;11.63;;;;;;;24.40;42.30;102353.63;5095357;28;20130;-40
2022/05/07 11:25:00;;;;;;;17.95;10.52;;;;;;;25.74;41.15;102350.75;5097506;28;20028;-42
2022/05/07 11:27:29;;;;;;;18.70;10.60;;;;;;;25.29;40.84;102347.41;5097365;28;20028;-41
2022/05/07 11:29:54;;;;;;;18.30;9.35;;;;;;;25.93;39.77;102346.72;5097052;28;20024;-41
2022/05/07 11:32:19;;;;;;;14.57;9.63;;;;;;;25.76;39.88;102349.47;5096894;28;20035;-41
2022/05/07 11:34:45;;;;;;;12.70;8.20;;;;;;;25.55;40.18;102353.78;5096778;28;20020;-40